Аэропорт: Казань. Казань

ICAO: UWKD

METAR:
2019/01/21 23:00
UWKD 212300Z 28003MPS 5000 -SN OVC017 M11/M12 Q1005 R29/420340 NOSIG RMK QFE743/0990
METAR:
2019/01/21 21:25
TAF UWKD 211957Z 2121/2221 20003MPS 5000 -SN BR OVC011 TXM09/2121Z TNM14/2206Z 
      TEMPO 2121/2124 1000 SHSN OVC005 BKN015CB 
      BECMG 2122/2124 26003MPS 
      TEMPO 2200/2206 2000 SHSN BKN015CB 
      TEMPO 2206/2215 27005G12MPS 3100 -SHSN BKN015CB